createdAt,value
2019-04-05T00:03:18.234Z,45.03
2019-04-05T00:08:21.440Z,45.93
2019-04-05T00:13:24.747Z,43.50
2019-04-05T00:18:27.734Z,45.00
2019-04-05T00:23:31.023Z,43.40
2019-04-05T00:28:34.380Z,42.70
2019-04-05T00:33:37.994Z,43.40
2019-04-05T00:38:40.486Z,42.87
2019-04-05T00:43:43.146Z,41.97
2019-04-05T00:48:46.351Z,41.80
2019-04-05T00:53:49.714Z,40.70
2019-04-05T00:58:52.933Z,41.87
2019-04-05T01:03:55.823Z,41.20
2019-04-05T01:08:59.029Z,45.10
2019-04-05T01:14:04.063Z,41.10
2019-04-05T01:19:07.975Z,40.97
2019-04-05T01:24:12.649Z,41.27
2019-04-05T01:29:17.959Z,41.00
2019-04-05T01:34:20.892Z,42.90
2019-04-05T01:39:24.157Z,44.23
2019-04-05T01:44:27.735Z,41.13
2019-04-05T01:49:30.620Z,42.03
2019-04-05T01:54:33.555Z,44.30
2019-04-05T01:59:36.153Z,42.23
2019-04-05T02:04:38.676Z,41.10
2019-04-05T02:09:41.662Z,41.00
2019-04-05T02:14:45.169Z,41.57
2019-04-05T02:19:48.389Z,42.50
2019-04-05T02:24:51.604Z,44.87
2019-04-05T02:29:54.179Z,42.70
2019-04-05T02:34:57.456Z,40.00
2019-04-05T02:39:59.939Z,41.97
2019-04-05T02:45:03.075Z,43.83
2019-04-05T02:50:07.259Z,44.07
2019-04-05T02:55:11.564Z,42.70
2019-04-05T03:00:14.721Z,42.90
2019-04-05T03:05:20.316Z,44.53
2019-04-05T03:11:00.355Z,45.53
2019-04-05T03:16:06.583Z,43.40
2019-04-05T03:21:11.272Z,44.40
2019-04-05T03:26:19.241Z,47.80
2019-04-05T03:31:25.090Z,44.23
2019-04-05T03:36:28.086Z,42.33
2019-04-05T03:41:31.921Z,45.40
2019-04-05T03:46:34.949Z,47.10
2019-04-05T03:51:38.197Z,46.30
2019-04-05T03:56:42.323Z,41.90
2019-04-05T04:01:45.493Z,43.93
2019-04-05T04:06:49.424Z,43.53
2019-04-05T04:11:53.144Z,42.70
2019-04-05T04:17:11.317Z,41.50
2019-04-05T04:22:19.430Z,44.00
2019-04-05T04:27:23.426Z,43.50
2019-04-05T04:32:26.877Z,41.30
2019-04-05T04:37:29.569Z,41.60
2019-04-05T04:42:32.708Z,40.10
2019-04-05T04:47:35.986Z,38.97
2019-04-05T04:52:40.086Z,38.53
2019-04-05T04:57:42.974Z,41.23
2019-04-05T05:02:46.050Z,40.33
2019-04-05T05:07:49.320Z,39.20
2019-04-05T05:12:53.071Z,38.20
2019-04-05T05:17:58.864Z,46.77
2019-04-05T05:23:01.290Z,48.13
2019-04-05T05:28:04.892Z,43.70
2019-04-05T05:33:08.079Z,42.87
2019-04-05T05:38:11.272Z,44.00
2019-04-05T05:43:14.577Z,45.93
2019-04-05T05:48:18.406Z,46.10
2019-04-05T05:53:21.710Z,43.67
2019-04-05T05:58:25.891Z,44.13
2019-04-05T06:03:29.815Z,44.90
2019-04-05T06:08:33.266Z,44.70
2019-04-05T06:13:36.782Z,42.70
2019-04-05T06:18:40.022Z,52.43
2019-04-05T06:23:42.898Z,44.70
2019-04-05T06:28:46.242Z,43.20
2019-04-05T06:33:49.426Z,43.03
2019-04-05T06:38:52.447Z,45.80
2019-04-05T06:43:55.945Z,40.63
2019-04-05T06:48:59.174Z,42.70
2019-04-05T06:54:03.465Z,41.83
2019-04-05T06:59:06.625Z,48.97
2019-04-05T07:04:10.230Z,46.00
2019-04-05T07:09:12.830Z,44.33
2019-04-05T07:14:15.697Z,46.33
2019-04-05T07:19:18.699Z,46.50
2019-04-05T07:24:21.961Z,43.87
2019-04-05T07:29:24.750Z,44.53
2019-04-05T07:34:29.495Z,45.43
2019-04-05T07:39:35.036Z,44.07
2019-04-05T07:44:37.920Z,43.97
2019-04-05T07:49:43.578Z,46.70
2019-04-05T07:54:46.432Z,43.93
2019-04-05T07:59:49.670Z,44.10
2019-04-05T08:04:54.604Z,43.10
2019-04-05T08:09:57.865Z,43.63
2019-04-05T08:15:01.314Z,44.40
2019-04-05T08:20:04.369Z,44.60
2019-04-05T08:25:07.956Z,44.50
2019-04-05T08:30:11.365Z,45.87
2019-04-05T08:35:14.884Z,46.60
2019-04-05T08:40:17.986Z,45.00
2019-04-05T08:45:20.558Z,45.50
2019-04-05T08:50:23.495Z,46.70
2019-04-05T08:55:26.149Z,45.03
2019-04-05T09:00:29.496Z,44.33
2019-04-05T09:05:33.538Z,45.63
2019-04-05T09:10:36.841Z,45.50
2019-04-05T09:15:39.629Z,43.90
2019-04-05T09:20:43.007Z,45.27
2019-04-05T09:25:46.251Z,46.57
2019-04-05T09:30:51.886Z,44.97
2019-04-05T09:35:54.956Z,44.67
2019-04-05T09:40:58.199Z,45.60
2019-04-05T09:46:01.160Z,46.70
2019-04-05T09:51:07.123Z,42.50
2019-04-05T09:56:09.890Z,45.07
2019-04-05T10:01:13.352Z,44.00
2019-04-05T10:06:16.254Z,43.30
2019-04-05T10:11:19.159Z,43.53
2019-04-05T10:16:22.053Z,39.70
2019-04-05T10:21:25.548Z,41.40
2019-04-05T10:26:29.111Z,41.33
2019-04-05T10:31:32.307Z,41.30
2019-04-05T10:36:35.514Z,42.50
2019-04-05T10:41:38.741Z,39.40
2019-04-05T10:46:41.281Z,38.63
2019-04-05T10:51:44.012Z,36.87
2019-04-05T10:56:46.872Z,42.03
2019-04-05T11:01:50.063Z,40.40
2019-04-05T11:06:53.269Z,41.67
2019-04-05T11:11:56.233Z,43.03
2019-04-05T11:16:59.457Z,43.20
2019-04-05T11:22:02.868Z,43.50
2019-04-05T11:27:06.841Z,45.57
2019-04-05T11:32:10.498Z,43.33
2019-04-05T11:37:13.862Z,39.27
2019-04-05T11:42:19.365Z,40.03
2019-04-05T11:47:22.621Z,37.87
2019-04-05T11:52:25.461Z,36.93
2019-04-05T11:57:28.394Z,37.57
2019-04-05T12:02:43.902Z,35.53
2019-04-05T12:07:47.386Z,36.98
2019-04-05T12:12:50.938Z,35.13
2019-04-05T12:17:54.561Z,35.90
2019-04-05T12:22:57.057Z,35.00
2019-04-05T12:28:06.338Z,36.07
2019-04-05T12:33:13.665Z,36.50
2019-04-05T12:38:10.581Z,25.30
2019-04-05T12:43:14.324Z,34.17
2019-04-05T12:48:17.607Z,32.20
2019-04-05T12:53:20.504Z,32.47
2019-04-05T12:58:25.892Z,31.23
2019-04-05T13:03:29.148Z,30.73
2019-04-05T13:08:32.598Z,33.43
2019-04-05T13:13:35.763Z,33.17
2019-04-05T13:18:38.744Z,32.80
2019-04-05T13:23:42.044Z,33.00
2019-04-05T13:28:46.474Z,34.23
2019-04-05T13:33:54.342Z,31.63
2019-04-05T13:38:55.445Z,32.40
2019-04-05T13:44:01.240Z,33.43
2019-04-05T13:49:03.494Z,32.00
2019-04-05T13:54:08.552Z,30.57
2019-04-05T13:59:11.778Z,31.13
2019-04-05T14:04:17.052Z,29.10
2019-04-05T14:09:20.080Z,32.43
2019-04-05T14:14:23.247Z,34.77
2019-04-05T14:19:28.809Z,34.00
2019-04-05T14:24:31.799Z,33.63
2019-04-05T14:29:35.532Z,33.77
2019-04-05T14:34:39.093Z,31.17
2019-04-05T14:39:42.151Z,31.00
2019-04-05T14:44:45.677Z,32.50
2019-04-05T14:49:48.882Z,30.60
2019-04-05T14:54:52.298Z,34.70
2019-04-05T14:59:54.959Z,33.73
2019-04-05T15:04:58.248Z,35.13
2019-04-05T15:10:03.728Z,34.47
2019-04-05T15:15:07.098Z,35.03
2019-04-05T15:20:10.716Z,33.23
2019-04-05T15:25:16.653Z,36.67
2019-04-05T15:30:19.484Z,34.60
2019-04-05T15:35:22.987Z,36.83
2019-04-05T15:40:26.355Z,33.67
2019-04-05T15:45:29.532Z,36.30
2019-04-05T15:50:33.859Z,34.23
2019-04-05T15:55:37.069Z,37.33
2019-04-05T16:00:42.454Z,36.93
2019-04-05T16:05:46.232Z,35.80
2019-04-05T16:10:49.166Z,34.80
2019-04-05T16:15:52.369Z,35.03
2019-04-05T16:20:55.502Z,35.13
2019-04-05T16:25:59.063Z,36.47
2019-04-05T16:31:02.049Z,32.37
2019-04-05T16:36:05.623Z,35.83
2019-04-05T16:41:09.165Z,36.27
2019-04-05T16:46:12.751Z,35.70
2019-04-05T16:51:16.070Z,36.00
2019-04-05T16:56:19.132Z,36.50
2019-04-05T17:01:27.215Z,32.37
2019-04-05T17:06:27.631Z,32.10
2019-04-05T17:11:30.206Z,29.00
2019-04-05T17:16:33.447Z,29.70
2019-04-05T17:21:36.941Z,29.47
2019-04-05T17:26:39.836Z,28.50
2019-04-05T17:31:43.190Z,28.17
2019-04-05T17:36:46.513Z,28.37
2019-04-05T17:41:49.104Z,31.70
2019-04-05T17:46:52.064Z,31.13
2019-04-05T17:51:55.302Z,30.50
2019-04-05T17:56:59.699Z,33.53
2019-04-05T18:02:03.252Z,35.00
2019-04-05T18:07:06.184Z,34.13
2019-04-05T18:12:09.158Z,35.37
2019-04-05T18:17:12.408Z,35.30
2019-04-05T18:22:15.389Z,35.87
2019-04-05T18:27:19.003Z,36.53
2019-04-05T18:32:22.243Z,35.27
2019-04-05T18:37:25.547Z,38.47
2019-04-05T18:42:28.455Z,38.33
2019-04-05T18:47:31.855Z,37.13
2019-04-05T18:52:34.760Z,39.07
2019-04-05T18:57:38.439Z,37.67
2019-04-05T19:02:43.203Z,38.77
2019-04-05T19:07:47.061Z,38.23
2019-04-05T19:12:55.270Z,37.00
2019-04-05T19:17:58.146Z,35.73
2019-04-05T19:23:02.492Z,36.40
2019-04-05T19:28:09.163Z,38.53
2019-04-05T19:48:37.802Z,37.80
2019-04-05T19:53:41.993Z,37.67
2019-04-05T19:58:45.652Z,41.17
2019-04-05T20:03:52.852Z,41.77
2019-04-05T20:08:56.668Z,39.50
2019-04-05T20:14:00.338Z,45.50
2019-04-05T20:19:04.238Z,41.33
2019-04-05T20:24:14.149Z,45.00
2019-04-05T20:29:13.265Z,52.88
2019-04-05T20:34:16.877Z,50.63
2019-04-05T20:39:19.950Z,48.70
2019-04-05T20:44:23.016Z,50.03
2019-04-05T20:49:26.273Z,52.77
2019-04-05T20:54:29.594Z,51.50
2019-04-05T20:59:33.218Z,57.23
2019-04-05T21:04:36.516Z,56.37
2019-04-05T21:09:39.831Z,54.07
2019-04-05T21:14:43.561Z,57.07
2019-04-05T21:19:46.169Z,59.00
2019-04-05T21:24:49.565Z,55.73
2019-04-05T21:29:52.922Z,57.90
2019-04-05T21:34:55.896Z,60.93
2019-04-05T21:39:59.436Z,60.07
2019-04-05T21:45:02.732Z,68.40
2019-04-05T21:50:08.429Z,73.40
2019-04-05T21:55:10.990Z,75.60
2019-04-05T22:00:22.214Z,75.67
2019-04-05T22:05:25.508Z,76.47
2019-04-05T22:10:29.388Z,79.90
2019-04-05T22:15:32.690Z,75.00
2019-04-05T22:20:36.919Z,71.03
2019-04-05T22:25:39.895Z,75.53
2019-04-05T22:30:43.685Z,75.77
2019-04-05T22:35:46.607Z,75.70
2019-04-05T22:40:49.294Z,79.97
2019-04-05T22:45:52.511Z,75.70
2019-04-05T22:50:56.100Z,76.47
2019-04-05T22:55:59.288Z,71.73
2019-04-05T23:01:02.558Z,75.73
2019-04-05T23:06:05.749Z,70.50
2019-04-05T23:11:09.090Z,72.97
2019-04-05T23:16:12.297Z,71.40
2019-04-05T23:21:15.462Z,72.23
2019-04-05T23:26:18.685Z,68.37
2019-04-05T23:31:21.919Z,62.17
2019-04-05T23:36:25.135Z,67.53
2019-04-05T23:41:27.879Z,68.00
2019-04-05T23:46:30.793Z,60.67
2019-04-05T23:51:34.136Z,62.00
2019-04-05T23:56:37.339Z,58.33
